sensor_id;sensor_type;location;lat;lon;timestamp;temperature;humidity
67557;DHT22;54387;53.526;49.300;2022-08-01T00:01:17;18.90;70.20
67557;DHT22;54387;53.526;49.300;2022-08-01T00:03:43;18.90;70.20
67557;DHT22;54387;53.526;49.300;2022-08-01T00:06:09;18.90;70.20
67557;DHT22;54387;53.526;49.300;2022-08-01T00:08:36;18.90;70.20
67557;DHT22;54387;53.526;49.300;2022-08-01T00:11:02;18.90;70.20
67557;DHT22;54387;53.526;49.300;2022-08-01T00:13:28;18.80;70.20
67557;DHT22;54387;53.526;49.300;2022-08-01T00:15:54;18.80;70.20
67557;DHT22;54387;53.526;49.300;2022-08-01T00:18:21;18.80;70.20
67557;DHT22;54387;53.526;49.300;2022-08-01T00:20:47;18.80;70.20
67557;DHT22;54387;53.526;49.300;2022-08-01T00:23:13;18.80;70.30
67557;DHT22;54387;53.526;49.300;2022-08-01T00:25:40;18.80;70.20
67557;DHT22;54387;53.526;49.300;2022-08-01T00:28:06;18.80;70.30
67557;DHT22;54387;53.526;49.300;2022-08-01T00:30:35;18.80;70.30
67557;DHT22;54387;53.526;49.300;2022-08-01T00:33:01;18.80;70.20
67557;DHT22;54387;53.526;49.300;2022-08-01T00:35:28;18.80;70.30
67557;DHT22;54387;53.526;49.300;2022-08-01T00:37:54;18.70;70.30
67557;DHT22;54387;53.526;49.300;2022-08-01T00:40:21;18.70;70.40
67557;DHT22;54387;53.526;49.300;2022-08-01T00:42:47;18.70;70.40
67557;DHT22;54387;53.526;49.300;2022-08-01T00:45:13;18.70;70.40
67557;DHT22;54387;53.526;49.300;2022-08-01T00:47:40;18.70;70.40
67557;DHT22;54387;53.526;49.300;2022-08-01T00:50:06;18.70;70.40
67557;DHT22;54387;53.526;49.300;2022-08-01T00:52:34;18.70;70.40
67557;DHT22;54387;53.526;49.300;2022-08-01T00:55:00;18.70;70.40
67557;DHT22;54387;53.526;49.300;2022-08-01T00:57:27;18.60;70.40
67557;DHT22;54387;53.526;49.300;2022-08-01T00:59:54;18.60;70.50
67557;DHT22;54387;53.526;49.300;2022-08-01T01:02:20;18.60;70.50
67557;DHT22;54387;53.526;49.300;2022-08-01T01:04:52;18.60;70.50
67557;DHT22;54387;53.526;49.300;2022-08-01T01:07:25;18.50;70.50
67557;DHT22;54387;53.526;49.300;2022-08-01T01:12:37;18.50;71.00
67557;DHT22;54387;53.526;49.300;2022-08-01T01:18:20;18.50;70.90
67557;DHT22;54387;53.526;49.300;2022-08-01T01:29:32;18.70;70.50
67557;DHT22;54387;53.526;49.300;2022-08-01T01:32:19;18.80;70.50
67557;DHT22;54387;53.526;49.300;2022-08-01T01:34:49;18.90;70.50
67557;DHT22;54387;53.526;49.300;2022-08-01T01:37:18;18.90;70.30
67557;DHT22;54387;53.526;49.300;2022-08-01T01:39:48;19.00;70.20
67557;DHT22;54387;53.526;49.300;2022-08-01T01:42:15;19.10;70.00
67557;DHT22;54387;53.526;49.300;2022-08-01T01:44:44;19.10;69.90
67557;DHT22;54387;53.526;49.300;2022-08-01T01:47:13;19.20;69.80
67557;DHT22;54387;53.526;49.300;2022-08-01T01:49:41;19.30;69.60
67557;DHT22;54387;53.526;49.300;2022-08-01T01:52:10;19.30;69.50
67557;DHT22;54387;53.526;49.300;2022-08-01T01:54:42;19.40;69.30
67557;DHT22;54387;53.526;49.300;2022-08-01T01:57:10;19.40;69.20
67557;DHT22;54387;53.526;49.300;2022-08-01T01:59:38;19.50;69.10
67557;DHT22;54387;53.526;49.300;2022-08-01T02:02:06;19.50;69.00
67557;DHT22;54387;53.526;49.300;2022-08-01T02:04:36;19.50;69.00
67557;DHT22;54387;53.526;49.300;2022-08-01T02:07:05;19.50;69.00
67557;DHT22;54387;53.526;49.300;2022-08-01T02:09:35;19.50;68.90
67557;DHT22;54387;53.526;49.300;2022-08-01T02:12:04;19.60;68.90
67557;DHT22;54387;53.526;49.300;2022-08-01T02:14:33;19.60;68.90
67557;DHT22;54387;53.526;49.300;2022-08-01T02:17:06;19.50;68.90
67557;DHT22;54387;53.526;49.300;2022-08-01T02:19:33;19.50;69.00
67557;DHT22;54387;53.526;49.300;2022-08-01T02:22:04;19.50;69.10
67557;DHT22;54387;53.526;49.300;2022-08-01T02:27:12;19.40;69.30
67557;DHT22;54387;53.526;49.300;2022-08-01T02:29:43;19.30;69.40
67557;DHT22;54387;53.526;49.300;2022-08-01T02:32:20;19.30;69.50
67557;DHT22;54387;53.526;49.300;2022-08-01T02:34:51;19.30;69.60
67557;DHT22;54387;53.526;49.300;2022-08-01T02:37:19;19.30;69.70
67557;DHT22;54387;53.526;49.300;2022-08-01T02:39:51;19.30;69.80
67557;DHT22;54387;53.526;49.300;2022-08-01T02:42:19;19.30;70.00
67557;DHT22;54387;53.526;49.300;2022-08-01T02:44:47;19.30;70.00
67557;DHT22;54387;53.526;49.300;2022-08-01T02:47:15;19.30;70.00
67557;DHT22;54387;53.526;49.300;2022-08-01T02:49:45;19.30;70.00
67557;DHT22;54387;53.526;49.300;2022-08-01T02:52:15;19.30;70.10
67557;DHT22;54387;53.526;49.300;2022-08-01T02:54:44;19.30;70.10
67557;DHT22;54387;53.526;49.300;2022-08-01T02:57:13;19.30;70.20
67557;DHT22;54387;53.526;49.300;2022-08-01T02:59:40;19.30;70.20
67557;DHT22;54387;53.526;49.300;2022-08-01T03:02:08;19.30;70.20
67557;DHT22;54387;53.526;49.300;2022-08-01T03:04:37;19.40;70.40
67557;DHT22;54387;53.526;49.300;2022-08-01T03:07:07;19.50;70.40
67557;DHT22;54387;53.526;49.300;2022-08-01T03:09:37;19.60;70.40
67557;DHT22;54387;53.526;49.300;2022-08-01T03:12:10;19.70;70.40
67557;DHT22;54387;53.526;49.300;2022-08-01T03:14:39;19.90;70.30
67557;DHT22;54387;53.526;49.300;2022-08-01T03:17:07;20.00;70.20
67557;DHT22;54387;53.526;49.300;2022-08-01T03:19:35;20.10;70.00
67557;DHT22;54387;53.526;49.300;2022-08-01T03:22:06;20.30;69.80
67557;DHT22;54387;53.526;49.300;2022-08-01T03:24:35;20.40;69.70
67557;DHT22;54387;53.526;49.300;2022-08-01T03:27:03;20.40;69.40
67557;DHT22;54387;53.526;49.300;2022-08-01T03:29:30;20.50;69.30
67557;DHT22;54387;53.526;49.300;2022-08-01T03:31:58;20.60;69.20
67557;DHT22;54387;53.526;49.300;2022-08-01T03:34:26;20.70;68.90
67557;DHT22;54387;53.526;49.300;2022-08-01T03:37:06;20.80;68.70
67557;DHT22;54387;53.526;49.300;2022-08-01T03:39:40;20.90;68.60
67557;DHT22;54387;53.526;49.300;2022-08-01T03:42:14;21.00;68.90
67557;DHT22;54387;53.526;49.300;2022-08-01T03:44:48;21.10;68.10
67557;DHT22;54387;53.526;49.300;2022-08-01T03:47:22;21.20;67.90
67557;DHT22;54387;53.526;49.300;2022-08-01T03:49:52;21.20;67.60
67557;DHT22;54387;53.526;49.300;2022-08-01T03:52:19;21.30;67.50
67557;DHT22;54387;53.526;49.300;2022-08-01T03:54:49;21.40;67.40
67557;DHT22;54387;53.526;49.300;2022-08-01T03:57:17;21.50;67.30
67557;DHT22;54387;53.526;49.300;2022-08-01T03:59:45;21.50;67.10
67557;DHT22;54387;53.526;49.300;2022-08-01T04:02:12;21.60;67.10
67557;DHT22;54387;53.526;49.300;2022-08-01T04:04:41;21.60;67.00
67557;DHT22;54387;53.526;49.300;2022-08-01T04:09:50;21.60;66.80
67557;DHT22;54387;53.526;49.300;2022-08-01T04:12:16;21.70;66.70
67557;DHT22;54387;53.526;49.300;2022-08-01T04:14:43;21.70;66.70
67557;DHT22;54387;53.526;49.300;2022-08-01T04:17:09;21.70;66.80
67557;DHT22;54387;53.526;49.300;2022-08-01T04:19:35;21.70;66.70
67557;DHT22;54387;53.526;49.300;2022-08-01T04:22:02;21.70;66.60
67557;DHT22;54387;53.526;49.300;2022-08-01T04:24:30;21.70;66.60
67557;DHT22;54387;53.526;49.300;2022-08-01T04:27:00;21.70;66.70
67557;DHT22;54387;53.526;49.300;2022-08-01T04:29:27;21.80;66.90
67557;DHT22;54387;53.526;49.300;2022-08-01T04:31:55;21.80;66.80
67557;DHT22;54387;53.526;49.300;2022-08-01T04:34:24;21.80;66.70
67557;DHT22;54387;53.526;49.300;2022-08-01T04:36:54;21.90;66.70
67557;DHT22;54387;53.526;49.300;2022-08-01T04:39:23;21.90;66.60
67557;DHT22;54387;53.526;49.300;2022-08-01T04:41:54;22.00;66.60
67557;DHT22;54387;53.526;49.300;2022-08-01T04:44:35;22.10;66.50
67557;DHT22;54387;53.526;49.300;2022-08-01T04:47:06;22.10;66.40
67557;DHT22;54387;53.526;49.300;2022-08-01T04:49:34;22.20;66.60
67557;DHT22;54387;53.526;49.300;2022-08-01T04:52:01;22.20;66.50
67557;DHT22;54387;53.526;49.300;2022-08-01T04:54:28;22.20;66.20
67557;DHT22;54387;53.526;49.300;2022-08-01T04:56:56;22.30;66.20
67557;DHT22;54387;53.526;49.300;2022-08-01T04:59:29;22.40;66.00
67557;DHT22;54387;53.526;49.300;2022-08-01T05:02:16;22.50;65.80
67557;DHT22;54387;53.526;49.300;2022-08-01T05:04:44;22.60;65.50
67557;DHT22;54387;53.526;49.300;2022-08-01T05:07:12;22.60;65.20
67557;DHT22;54387;53.526;49.300;2022-08-01T05:09:40;22.70;65.00
67557;DHT22;54387;53.526;49.300;2022-08-01T05:12:09;22.70;64.80
67557;DHT22;54387;53.526;49.300;2022-08-01T05:14:44;22.80;64.40
67557;DHT22;54387;53.526;49.300;2022-08-01T05:17:16;22.80;64.30
67557;DHT22;54387;53.526;49.300;2022-08-01T05:19:43;22.90;64.40
67557;DHT22;54387;53.526;49.300;2022-08-01T05:22:10;22.90;64.20
67557;DHT22;54387;53.526;49.300;2022-08-01T05:24:38;22.90;64.10
67557;DHT22;54387;53.526;49.300;2022-08-01T05:27:06;23.00;63.70
67557;DHT22;54387;53.526;49.300;2022-08-01T05:29:34;23.00;63.50
67557;DHT22;54387;53.526;49.300;2022-08-01T05:32:01;23.10;63.40
67557;DHT22;54387;53.526;49.300;2022-08-01T05:34:27;23.10;63.40
67557;DHT22;54387;53.526;49.300;2022-08-01T05:36:54;23.20;63.40
67557;DHT22;54387;53.526;49.300;2022-08-01T05:39:20;23.20;63.10
67557;DHT22;54387;53.526;49.300;2022-08-01T05:41:46;23.30;63.10
67557;DHT22;54387;53.526;49.300;2022-08-01T05:44:12;23.30;63.10
67557;DHT22;54387;53.526;49.300;2022-08-01T05:46:39;23.40;63.00
67557;DHT22;54387;53.526;49.300;2022-08-01T05:49:05;23.40;63.10
67557;DHT22;54387;53.526;49.300;2022-08-01T05:51:32;23.50;62.80
67557;DHT22;54387;53.526;49.300;2022-08-01T05:53:59;23.60;62.70
67557;DHT22;54387;53.526;49.300;2022-08-01T05:56:25;23.60;62.60
67557;DHT22;54387;53.526;49.300;2022-08-01T05:58:52;23.70;62.70
67557;DHT22;54387;53.526;49.300;2022-08-01T06:01:19;23.70;62.50
67557;DHT22;54387;53.526;49.300;2022-08-01T06:03:46;23.80;62.30
67557;DHT22;54387;53.526;49.300;2022-08-01T06:06:17;23.80;62.20
67557;DHT22;54387;53.526;49.300;2022-08-01T06:08:43;23.90;62.00
67557;DHT22;54387;53.526;49.300;2022-08-01T06:11:10;24.00;61.50
67557;DHT22;54387;53.526;49.300;2022-08-01T06:13:36;24.10;61.10
67557;DHT22;54387;53.526;49.300;2022-08-01T06:16:02;24.10;60.90
67557;DHT22;54387;53.526;49.300;2022-08-01T06:18:28;24.20;60.80
67557;DHT22;54387;53.526;49.300;2022-08-01T06:20:55;24.20;60.60
67557;DHT22;54387;53.526;49.300;2022-08-01T06:23:21;24.40;60.70
67557;DHT22;54387;53.526;49.300;2022-08-01T06:25:48;24.40;60.50
67557;DHT22;54387;53.526;49.300;2022-08-01T06:28:14;24.50;60.30
67557;DHT22;54387;53.526;49.300;2022-08-01T06:30:41;24.60;60.60
67557;DHT22;54387;53.526;49.300;2022-08-01T06:33:07;24.70;59.80
67557;DHT22;54387;53.526;49.300;2022-08-01T06:35:39;24.80;59.20
67557;DHT22;54387;53.526;49.300;2022-08-01T06:38:05;24.90;59.20
67557;DHT22;54387;53.526;49.300;2022-08-01T06:40:31;24.90;59.30
67557;DHT22;54387;53.526;49.300;2022-08-01T06:42:57;24.90;58.90
67557;DHT22;54387;53.526;49.300;2022-08-01T06:45:24;24.90;59.20
67557;DHT22;54387;53.526;49.300;2022-08-01T06:47:52;25.00;58.30
67557;DHT22;54387;53.526;49.300;2022-08-01T06:50:19;25.00;58.90
67557;DHT22;54387;53.526;49.300;2022-08-01T06:52:45;25.00;57.50
67557;DHT22;54387;53.526;49.300;2022-08-01T06:55:11;25.00;57.50
67557;DHT22;54387;53.526;49.300;2022-08-01T06:57:48;24.90;57.50
67557;DHT22;54387;53.526;49.300;2022-08-01T07:00:15;24.70;57.70
67557;DHT22;54387;53.526;49.300;2022-08-01T07:02:45;24.70;58.50
67557;DHT22;54387;53.526;49.300;2022-08-01T07:05:11;24.70;58.30
67557;DHT22;54387;53.526;49.300;2022-08-01T07:07:38;24.80;58.30
67557;DHT22;54387;53.526;49.300;2022-08-01T07:10:05;24.90;58.30
67557;DHT22;54387;53.526;49.300;2022-08-01T07:12:31;25.10;56.50
67557;DHT22;54387;53.526;49.300;2022-08-01T07:14:59;25.10;55.90
67557;DHT22;54387;53.526;49.300;2022-08-01T07:17:25;25.20;56.30
67557;DHT22;54387;53.526;49.300;2022-08-01T07:19:51;25.40;56.20
67557;DHT22;54387;53.526;49.300;2022-08-01T07:22:20;25.60;55.60
67557;DHT22;54387;53.526;49.300;2022-08-01T07:24:46;25.80;55.00
67557;DHT22;54387;53.526;49.300;2022-08-01T07:27:13;26.00;54.50
67557;DHT22;54387;53.526;49.300;2022-08-01T07:29:39;26.20;54.00
67557;DHT22;54387;53.526;49.300;2022-08-01T07:32:05;26.40;53.60
67557;DHT22;54387;53.526;49.300;2022-08-01T07:34:32;26.50;53.50
67557;DHT22;54387;53.526;49.300;2022-08-01T07:36:58;26.60;52.70
67557;DHT22;54387;53.526;49.300;2022-08-01T07:39:24;26.50;52.60
67557;DHT22;54387;53.526;49.300;2022-08-01T07:41:50;26.50;52.60
67557;DHT22;54387;53.526;49.300;2022-08-01T07:44:17;26.40;52.40
67557;DHT22;54387;53.526;49.300;2022-08-01T07:46:43;26.30;52.40
67557;DHT22;54387;53.526;49.300;2022-08-01T07:49:09;26.30;52.30
67557;DHT22;54387;53.526;49.300;2022-08-01T07:51:35;26.30;52.30
67557;DHT22;54387;53.526;49.300;2022-08-01T07:54:01;26.40;52.30
67557;DHT22;54387;53.526;49.300;2022-08-01T07:56:28;26.40;52.40
67557;DHT22;54387;53.526;49.300;2022-08-01T07:58:54;26.40;52.50
67557;DHT22;54387;53.526;49.300;2022-08-01T08:01:20;26.50;52.10
67557;DHT22;54387;53.526;49.300;2022-08-01T08:03:46;26.50;51.40
67557;DHT22;54387;53.526;49.300;2022-08-01T08:06:13;26.40;51.30
67557;DHT22;54387;53.526;49.300;2022-08-01T08:08:39;26.40;51.50
67557;DHT22;54387;53.526;49.300;2022-08-01T08:11:05;26.30;51.30
67557;DHT22;54387;53.526;49.300;2022-08-01T08:13:32;26.40;51.40
67557;DHT22;54387;53.526;49.300;2022-08-01T08:15:58;26.40;51.20
67557;DHT22;54387;53.526;49.300;2022-08-01T08:18:25;26.50;50.80
67557;DHT22;54387;53.526;49.300;2022-08-01T08:20:52;26.50;50.50
67557;DHT22;54387;53.526;49.300;2022-08-01T08:23:18;26.50;50.30
67557;DHT22;54387;53.526;49.300;2022-08-01T08:26:03;26.50;50.50
67557;DHT22;54387;53.526;49.300;2022-08-01T08:28:29;26.70;51.30
67557;DHT22;54387;53.526;49.300;2022-08-01T08:30:55;26.90;49.70
67557;DHT22;54387;53.526;49.300;2022-08-01T08:33:21;27.30;48.50
67557;DHT22;54387;53.526;49.300;2022-08-01T08:35:48;27.60;47.60
67557;DHT22;54387;53.526;49.300;2022-08-01T08:38:14;27.80;46.40
67557;DHT22;54387;53.526;49.300;2022-08-01T08:40:40;27.80;46.00
67557;DHT22;54387;53.526;49.300;2022-08-01T08:43:07;27.80;45.90
67557;DHT22;54387;53.526;49.300;2022-08-01T08:45:33;27.70;46.00
67557;DHT22;54387;53.526;49.300;2022-08-01T08:48:00;27.50;46.40
67557;DHT22;54387;53.526;49.300;2022-08-01T08:50:27;27.40;46.60
67557;DHT22;54387;53.526;49.300;2022-08-01T08:52:55;27.30;46.70
67557;DHT22;54387;53.526;49.300;2022-08-01T08:55:23;27.40;45.60
67557;DHT22;54387;53.526;49.300;2022-08-01T08:57:50;27.50;46.30
67557;DHT22;54387;53.526;49.300;2022-08-01T09:00:18;27.60;44.70
67557;DHT22;54387;53.526;49.300;2022-08-01T09:02:46;27.70;45.40
67557;DHT22;54387;53.526;49.300;2022-08-01T09:05:15;27.90;44.90
67557;DHT22;54387;53.526;49.300;2022-08-01T09:07:42;27.90;44.70
67557;DHT22;54387;53.526;49.300;2022-08-01T09:10:09;28.00;44.80
67557;DHT22;54387;53.526;49.300;2022-08-01T09:12:37;28.10;44.70
67557;DHT22;54387;53.526;49.300;2022-08-01T09:15:46;28.10;43.70
67557;DHT22;54387;53.526;49.300;2022-08-01T09:18:43;28.10;43.80
67557;DHT22;54387;53.526;49.300;2022-08-01T09:21:17;28.30;43.80
67557;DHT22;54387;53.526;49.300;2022-08-01T09:23:54;28.50;42.70
67557;DHT22;54387;53.526;49.300;2022-08-01T09:26:41;28.90;42.00
67557;DHT22;54387;53.526;49.300;2022-08-01T09:29:17;29.30;42.00
67557;DHT22;54387;53.526;49.300;2022-08-01T09:31:45;30.00;41.40
67557;DHT22;54387;53.526;49.300;2022-08-01T09:34:13;30.80;40.60
67557;DHT22;54387;53.526;49.300;2022-08-01T09:36:51;31.80;39.00
67557;DHT22;54387;53.526;49.300;2022-08-01T09:39:19;32.50;38.10
67557;DHT22;54387;53.526;49.300;2022-08-01T09:41:46;33.10;37.30
67557;DHT22;54387;53.526;49.300;2022-08-01T09:44:13;33.00;35.50
67557;DHT22;54387;53.526;49.300;2022-08-01T09:46:54;32.40;35.50
67557;DHT22;54387;53.526;49.300;2022-08-01T09:49:28;32.70;35.00
67557;DHT22;54387;53.526;49.300;2022-08-01T09:51:55;34.70;33.60
67557;DHT22;54387;53.526;49.300;2022-08-01T09:54:32;36.80;31.20
67557;DHT22;54387;53.526;49.300;2022-08-01T09:57:16;38.50;29.20
67557;DHT22;54387;53.526;49.300;2022-08-01T09:59:45;39.80;28.10
67557;DHT22;54387;53.526;49.300;2022-08-01T10:02:13;41.10;27.50
67557;DHT22;54387;53.526;49.300;2022-08-01T10:04:49;42.60;26.40
67557;DHT22;54387;53.526;49.300;2022-08-01T10:07:16;42.80;25.80
67557;DHT22;54387;53.526;49.300;2022-08-01T10:09:43;42.70;25.30
67557;DHT22;54387;53.526;49.300;2022-08-01T10:12:11;41.60;25.30
67557;DHT22;54387;53.526;49.300;2022-08-01T10:14:38;40.10;25.70
67557;DHT22;54387;53.526;49.300;2022-08-01T10:17:08;39.10;26.60
67557;DHT22;54387;53.526;49.300;2022-08-01T10:19:35;40.10;26.70
67557;DHT22;54387;53.526;49.300;2022-08-01T10:22:07;42.00;25.70
67557;DHT22;54387;53.526;49.300;2022-08-01T10:24:37;44.10;25.30
67557;DHT22;54387;53.526;49.300;2022-08-01T10:27:06;45.70;23.40
67557;DHT22;54387;53.526;49.300;2022-08-01T10:29:40;47.20;22.80
67557;DHT22;54387;53.526;49.300;2022-08-01T10:32:07;47.00;22.40
67557;DHT22;54387;53.526;49.300;2022-08-01T10:34:36;44.90;22.50
67557;DHT22;54387;53.526;49.300;2022-08-01T10:37:04;42.80;23.40
67557;DHT22;54387;53.526;49.300;2022-08-01T10:39:31;42.80;23.50
67557;DHT22;54387;53.526;49.300;2022-08-01T10:41:58;43.50;23.60
67557;DHT22;54387;53.526;49.300;2022-08-01T10:44:26;44.50;23.40
67557;DHT22;54387;53.526;49.300;2022-08-01T10:46:57;45.60;22.70
67557;DHT22;54387;53.526;49.300;2022-08-01T10:49:27;46.80;22.50
67557;DHT22;54387;53.526;49.300;2022-08-01T10:51:55;48.10;22.10
67557;DHT22;54387;53.526;49.300;2022-08-01T10:54:24;49.10;21.60
67557;DHT22;54387;53.526;49.300;2022-08-01T10:56:52;49.30;21.00
67557;DHT22;54387;53.526;49.300;2022-08-01T10:59:26;48.40;21.30
67557;DHT22;54387;53.526;49.300;2022-08-01T11:02:06;46.30;21.90
67557;DHT22;54387;53.526;49.300;2022-08-01T11:07:49;45.10;22.70
67557;DHT22;54387;53.526;49.300;2022-08-01T11:10:40;45.50;22.80
67557;DHT22;54387;53.526;49.300;2022-08-01T11:13:09;46.20;22.40
67557;DHT22;54387;53.526;49.300;2022-08-01T11:15:38;46.90;22.20
67557;DHT22;54387;53.526;49.300;2022-08-01T11:20:57;48.40;21.30
67557;DHT22;54387;53.526;49.300;2022-08-01T11:23:25;48.60;21.10
67557;DHT22;54387;53.526;49.300;2022-08-01T11:28:21;48.50;21.20
67557;DHT22;54387;53.526;49.300;2022-08-01T11:33:18;48.20;20.70
67557;DHT22;54387;53.526;49.300;2022-08-01T11:38:48;47.40;20.80
67557;DHT22;54387;53.526;49.300;2022-08-01T11:41:23;46.50;21.30
67557;DHT22;54387;53.526;49.300;2022-08-01T11:43:59;45.40;21.90
67557;DHT22;54387;53.526;49.300;2022-08-01T11:46:45;44.20;21.70
67557;DHT22;54387;53.526;49.300;2022-08-01T11:52:08;43.10;22.70
67557;DHT22;54387;53.526;49.300;2022-08-01T11:57:26;43.30;22.80
67557;DHT22;54387;53.526;49.300;2022-08-01T11:59:55;44.00;22.60
67557;DHT22;54387;53.526;49.300;2022-08-01T12:02:26;44.50;22.20
67557;DHT22;54387;53.526;49.300;2022-08-01T12:07:32;45.70;21.70
67557;DHT22;54387;53.526;49.300;2022-08-01T12:10:10;45.90;21.50
67557;DHT22;54387;53.526;49.300;2022-08-01T12:12:40;45.70;21.50
67557;DHT22;54387;53.526;49.300;2022-08-01T12:15:08;45.40;21.80
67557;DHT22;54387;53.526;49.300;2022-08-01T12:17:37;45.70;21.90
67557;DHT22;54387;53.526;49.300;2022-08-01T12:20:06;45.70;21.70
67557;DHT22;54387;53.526;49.300;2022-08-01T12:22:33;45.60;21.60
67557;DHT22;54387;53.526;49.300;2022-08-01T12:25:18;45.30;21.70
67557;DHT22;54387;53.526;49.300;2022-08-01T12:27:45;45.30;21.90
67557;DHT22;54387;53.526;49.300;2022-08-01T12:30:17;45.30;21.50
67557;DHT22;54387;53.526;49.300;2022-08-01T12:32:46;45.20;21.60
67557;DHT22;54387;53.526;49.300;2022-08-01T12:35:15;45.50;21.40
67557;DHT22;54387;53.526;49.300;2022-08-01T12:37:47;45.60;21.20
67557;DHT22;54387;53.526;49.300;2022-08-01T12:42:41;46.00;21.30
67557;DHT22;54387;53.526;49.300;2022-08-01T12:45:09;46.00;21.10
67557;DHT22;54387;53.526;49.300;2022-08-01T12:47:37;45.80;22.00
67557;DHT22;54387;53.526;49.300;2022-08-01T12:50:06;45.90;20.90
67557;DHT22;54387;53.526;49.300;2022-08-01T12:52:33;45.90;21.00
67557;DHT22;54387;53.526;49.300;2022-08-01T12:55:01;45.90;20.90
67557;DHT22;54387;53.526;49.300;2022-08-01T12:57:28;45.70;20.90
67557;DHT22;54387;53.526;49.300;2022-08-01T13:00:06;45.20;21.00
67557;DHT22;54387;53.526;49.300;2022-08-01T13:02:34;44.90;21.20
67557;DHT22;54387;53.526;49.300;2022-08-01T13:05:01;44.60;21.20
67557;DHT22;54387;53.526;49.300;2022-08-01T13:07:47;44.30;21.50
67557;DHT22;54387;53.526;49.300;2022-08-01T13:10:15;44.40;21.60
67557;DHT22;54387;53.526;49.300;2022-08-01T13:12:54;44.40;21.20
67557;DHT22;54387;53.526;49.300;2022-08-01T13:15:29;43.80;21.50
67557;DHT22;54387;53.526;49.300;2022-08-01T13:17:59;43.00;21.80
67557;DHT22;54387;53.526;49.300;2022-08-01T13:20:34;42.20;22.10
67557;DHT22;54387;53.526;49.300;2022-08-01T13:25:53;41.10;22.40
67557;DHT22;54387;53.526;49.300;2022-08-01T13:28:21;40.70;22.60
67557;DHT22;54387;53.526;49.300;2022-08-01T13:30:52;40.10;22.70
67557;DHT22;54387;53.526;49.300;2022-08-01T13:33:18;39.10;23.30
67557;DHT22;54387;53.526;49.300;2022-08-01T13:35:44;38.00;24.10
67557;DHT22;54387;53.526;49.300;2022-08-01T13:38:12;37.00;24.70
67557;DHT22;54387;53.526;49.300;2022-08-01T13:40:38;36.10;25.30
67557;DHT22;54387;53.526;49.300;2022-08-01T13:43:04;35.30;25.90
67557;DHT22;54387;53.526;49.300;2022-08-01T13:45:30;34.60;26.60
67557;DHT22;54387;53.526;49.300;2022-08-01T13:47:57;33.90;27.30
67557;DHT22;54387;53.526;49.300;2022-08-01T13:50:23;33.50;27.40
67557;DHT22;54387;53.526;49.300;2022-08-01T13:52:49;33.00;27.70
67557;DHT22;54387;53.526;49.300;2022-08-01T13:55:15;32.60;28.30
67557;DHT22;54387;53.526;49.300;2022-08-01T13:57:41;32.30;28.60
67557;DHT22;54387;53.526;49.300;2022-08-01T14:00:08;32.20;28.90
67557;DHT22;54387;53.526;49.300;2022-08-01T14:02:35;32.20;28.90
67557;DHT22;54387;53.526;49.300;2022-08-01T14:05:01;32.10;29.10
67557;DHT22;54387;53.526;49.300;2022-08-01T14:07:28;32.00;29.00
67557;DHT22;54387;53.526;49.300;2022-08-01T14:09:54;31.80;29.40
67557;DHT22;54387;53.526;49.300;2022-08-01T14:12:20;31.60;29.60
67557;DHT22;54387;53.526;49.300;2022-08-01T14:14:46;31.30;29.70
67557;DHT22;54387;53.526;49.300;2022-08-01T14:17:14;31.00;29.50
67557;DHT22;54387;53.526;49.300;2022-08-01T14:19:40;30.90;29.70
67557;DHT22;54387;53.526;49.300;2022-08-01T14:22:06;30.90;29.50
67557;DHT22;54387;53.526;49.300;2022-08-01T14:24:32;31.40;29.10
67557;DHT22;54387;53.526;49.300;2022-08-01T14:26:58;31.90;28.70
67557;DHT22;54387;53.526;49.300;2022-08-01T14:29:25;32.20;28.40
67557;DHT22;54387;53.526;49.300;2022-08-01T14:31:52;31.80;28.20
67557;DHT22;54387;53.526;49.300;2022-08-01T14:34:18;31.30;28.70
67557;DHT22;54387;53.526;49.300;2022-08-01T14:36:44;31.00;29.10
67557;DHT22;54387;53.526;49.300;2022-08-01T14:39:11;30.80;29.20
67557;DHT22;54387;53.526;49.300;2022-08-01T14:41:38;30.50;29.40
67557;DHT22;54387;53.526;49.300;2022-08-01T14:44:04;30.50;29.80
67557;DHT22;54387;53.526;49.300;2022-08-01T14:46:30;30.90;29.90
67557;DHT22;54387;53.526;49.300;2022-08-01T14:48:57;31.40;29.40
67557;DHT22;54387;53.526;49.300;2022-08-01T14:51:23;31.90;29.00
67557;DHT22;54387;53.526;49.300;2022-08-01T14:53:49;32.20;28.90
67557;DHT22;54387;53.526;49.300;2022-08-01T14:56:17;32.40;28.60
67557;DHT22;54387;53.526;49.300;2022-08-01T14:58:43;32.40;28.30
67557;DHT22;54387;53.526;49.300;2022-08-01T15:01:09;32.30;28.60
67557;DHT22;54387;53.526;49.300;2022-08-01T15:03:36;32.20;28.80
67557;DHT22;54387;53.526;49.300;2022-08-01T15:06:02;31.90;28.90
67557;DHT22;54387;53.526;49.300;2022-08-01T15:08:28;31.40;29.10
67557;DHT22;54387;53.526;49.300;2022-08-01T15:10:55;30.80;29.40
67557;DHT22;54387;53.526;49.300;2022-08-01T15:13:22;30.30;29.80
67557;DHT22;54387;53.526;49.300;2022-08-01T15:15:48;29.80;30.10
67557;DHT22;54387;53.526;49.300;2022-08-01T15:18:14;29.40;30.70
67557;DHT22;54387;53.526;49.300;2022-08-01T15:20:41;28.90;31.30
67557;DHT22;54387;53.526;49.300;2022-08-01T15:23:07;28.50;31.50
67557;DHT22;54387;53.526;49.300;2022-08-01T15:25:35;28.10;32.00
67557;DHT22;54387;53.526;49.300;2022-08-01T15:28:01;27.90;32.50
67557;DHT22;54387;53.526;49.300;2022-08-01T15:30:27;27.50;33.00
67557;DHT22;54387;53.526;49.300;2022-08-01T15:32:54;27.20;33.20
67557;DHT22;54387;53.526;49.300;2022-08-01T15:35:20;27.00;33.60
67557;DHT22;54387;53.526;49.300;2022-08-01T15:37:49;26.80;34.00
67557;DHT22;54387;53.526;49.300;2022-08-01T15:40:18;26.60;34.40
67557;DHT22;54387;53.526;49.300;2022-08-01T15:42:44;26.40;34.50
67557;DHT22;54387;53.526;49.300;2022-08-01T15:45:14;26.30;34.80
67557;DHT22;54387;53.526;49.300;2022-08-01T15:47:44;26.10;35.10
67557;DHT22;54387;53.526;49.300;2022-08-01T15:50:10;26.00;35.40
67557;DHT22;54387;53.526;49.300;2022-08-01T15:52:36;25.80;35.60
67557;DHT22;54387;53.526;49.300;2022-08-01T15:55:03;25.70;37.10
67557;DHT22;54387;53.526;49.300;2022-08-01T15:57:29;25.50;36.30
67557;DHT22;54387;53.526;49.300;2022-08-01T15:59:56;25.40;36.60
67557;DHT22;54387;53.526;49.300;2022-08-01T16:02:22;25.30;37.10
67557;DHT22;54387;53.526;49.300;2022-08-01T16:04:49;25.20;37.30
67557;DHT22;54387;53.526;49.300;2022-08-01T16:07:18;25.10;37.50
67557;DHT22;54387;53.526;49.300;2022-08-01T16:09:45;24.90;37.90
67557;DHT22;54387;53.526;49.300;2022-08-01T16:12:11;24.80;38.10